Time;durP1;ratioP1;P1;durP2;ratioP2;P2;SDS_P1;SDS_P2;PMS_P1;PMS_P2;Temp;Humidity;BMP_temperature;BMP_pressure;BME280_temperature;BME280_humidity;BME280_pressure;Samples;Min_cycle;Max_cycle;Signal;HPM_P1;HPM_P2
2022/11/03 00:01:46;;;;;;;40.58;16.70;;;;;;;9.73;90.96;98386.31;1707116;82;21041;-71
2022/11/03 00:04:15;;;;;;;32.48;15.40;;;;;;;9.79;91.15;98395.88;1708010;83;21002;-71
2022/11/03 00:06:44;;;;;;;30.95;14.13;;;;;;;9.82;91.09;98387.89;1696184;83;21008;-68
2022/11/03 00:09:14;;;;;;;32.63;14.13;;;;;;;9.85;91.07;98396.22;1707911;83;21011;-69
2022/11/03 00:11:43;;;;;;;32.50;14.05;;;;;;;9.87;91.19;98391.75;1707761;83;21066;-70
2022/11/03 00:14:11;;;;;;;26.50;13.25;;;;;;;9.93;91.14;98398.27;1708054;84;21004;-70
2022/11/03 00:16:39;;;;;;;24.98;11.57;;;;;;;9.96;91.23;98396.01;1708791;83;21031;-69
2022/11/03 00:19:07;;;;;;;28.75;12.85;;;;;;;10.00;91.17;98388.39;1709842;83;20989;-68
2022/11/03 00:21:34;;;;;;;24.52;11.80;;;;;;;10.03;91.06;98387.02;1707613;82;21065;-69
2022/11/03 00:24:03;;;;;;;27.30;12.23;;;;;;;10.03;91.03;98385.70;1707563;84;20989;-69
2022/11/03 00:26:32;;;;;;;25.02;11.80;;;;;;;10.13;91.22;98383.73;1697678;82;21040;-69
2022/11/03 00:29:06;;;;;;;24.72;10.53;;;;;;;10.13;90.71;98381.09;1708166;83;21017;-69
2022/11/03 00:31:35;;;;;;;25.55;12.58;;;;;;;10.17;90.90;98384.06;1708208;83;21350;-69
2022/11/03 00:34:03;;;;;;;26.97;12.05;;;;;;;10.17;90.65;98388.92;1707367;82;21057;-69
2022/11/03 00:36:34;;;;;;;25.02;12.28;;;;;;;10.19;90.88;98379.63;1689263;84;21017;-68
2022/11/03 00:39:02;;;;;;;24.47;11.15;;;;;;;10.27;90.79;98381.66;1688221;83;21011;-70
2022/11/03 00:41:28;;;;;;;30.68;12.40;;;;;;;10.22;90.11;98378.21;1708102;83;21497;-68
2022/11/03 00:44:13;;;;;;;27.85;12.40;;;;;;;10.17;90.20;98380.97;1704399;84;21008;-70
2022/11/03 00:46:39;;;;;;;26.87;10.95;;;;;;;10.17;90.37;98382.30;1707417;83;21462;-69
2022/11/03 00:49:06;;;;;;;25.72;11.75;;;;;;;10.20;90.47;98369.87;1707659;83;20996;-69
2022/11/03 00:51:51;;;;;;;28.05;12.40;;;;;;;10.19;90.44;98378.30;1707832;84;21067;-70
2022/11/03 00:54:18;;;;;;;28.80;12.55;;;;;;;10.14;90.62;98374.41;1707450;83;21454;-70
2022/11/03 00:56:53;;;;;;;30.50;14.68;;;;;;;10.10;90.51;98375.41;1706583;83;21466;-70
2022/11/03 00:59:19;;;;;;;29.52;12.13;;;;;;;10.07;90.59;98373.25;1707320;83;21530;-68
2022/11/03 01:02:03;;;;;;;31.07;12.93;;;;;;;10.04;90.79;98372.42;1690391;83;21028;-68
2022/11/03 01:07:10;;;;;;;33.95;13.68;;;;;;;10.03;90.77;98373.78;1647467;84;21024;-73
2022/11/03 01:09:42;;;;;;;37.85;13.60;;;;;;;10.01;90.58;98378.25;1707464;84;21034;-73
2022/11/03 01:12:16;;;;;;;33.00;13.58;;;;;;;10.00;90.77;98361.92;1706868;83;20982;-73
2022/11/03 01:14:52;;;;;;;32.48;13.08;;;;;;;9.97;90.60;98358.88;1706716;83;21061;-67
2022/11/03 01:17:27;;;;;;;31.12;13.65;;;;;;;9.95;90.76;98350.55;1707900;83;21017;-68
2022/11/03 01:19:54;;;;;;;40.03;14.23;;;;;;;9.88;90.44;98353.34;1689786;83;21021;-68
2022/11/03 01:22:23;;;;;;;29.98;12.98;;;;;;;9.84;90.90;98349.01;1707444;82;21021;-68
2022/11/03 01:24:50;;;;;;;33.88;14.03;;;;;;;9.81;90.94;98346.44;1707345;83;21076;-69
2022/11/03 01:27:21;;;;;;;30.57;13.78;;;;;;;9.79;91.15;98342.09;1707524;83;21033;-68
2022/11/03 01:29:47;;;;;;;29.15;13.03;;;;;;;9.75;90.97;98337.28;1707901;82;21044;-77
2022/11/03 01:32:14;;;;;;;29.72;12.88;;;;;;;9.73;91.05;98335.13;1715687;83;21014;-77
2022/11/03 01:34:41;;;;;;;32.10;14.75;;;;;;;9.72;91.35;98328.10;1707263;83;20977;-77
2022/11/03 01:37:07;;;;;;;31.12;13.95;;;;;;;9.72;91.14;98330.75;1708283;84;20995;-77
2022/11/03 01:39:34;;;;;;;30.60;13.53;;;;;;;9.69;91.15;98327.72;1706133;84;21044;-77
2022/11/03 01:42:00;;;;;;;31.10;13.83;;;;;;;9.66;91.57;98330.41;1708191;84;21044;-77
2022/11/03 01:44:36;;;;;;;38.53;15.95;;;;;;;9.65;91.64;98324.70;1707011;83;21520;-82
2022/11/03 01:47:29;;;;;;;32.45;13.45;;;;;;;9.63;91.75;98326.50;1708271;83;20989;-84
2022/11/03 01:50:02;;;;;;;33.78;14.43;;;;;;;;;;1619315;87;22062;-85
2022/11/03 01:52:51;;;;;;;40.45;16.55;;;;;;;9.59;91.53;98329.66;1639336;86;21041;-84
2022/11/03 01:55:26;;;;;;;32.95;15.35;;;;;;;9.57;91.85;98330.59;1728905;81;21382;-82
2022/11/03 01:58:07;;;;;;;40.08;15.25;;;;;;;9.57;92.21;98337.21;1764523;81;20980;-82
2022/11/03 02:00:36;;;;;;;41.53;16.37;;;;;;;9.55;92.84;98330.63;1759880;81;21416;-82
2022/11/03 02:03:03;;;;;;;43.10;18.95;;;;;;;9.56;92.34;98334.16;1764702;81;20979;-83
2022/11/03 02:05:30;;;;;;;42.65;16.97;;;;;;;9.56;92.36;98333.72;1767139;80;20989;-82
2022/11/03 02:08:07;;;;;;;42.75;16.07;;;;;;;9.58;92.52;98323.07;1764685;81;20995;-83
2022/11/03 02:10:36;;;;;;;44.55;16.80;;;;;;;9.60;92.58;98338.02;1764945;80;21458;-86
2022/11/03 02:13:10;;;;;;;41.28;16.67;;;;;;;9.66;92.83;98338.79;1770526;80;21416;-76
2022/11/03 02:15:38;;;;;;;43.20;17.52;;;;;;;9.72;92.64;98334.72;1768953;80;20972;-75
2022/11/03 02:18:06;;;;;;;36.85;17.45;;;;;;;9.76;92.52;98341.70;1770328;81;21311;-82
2022/11/03 02:20:34;;;;;;;40.10;16.37;;;;;;;9.80;92.65;98330.11;1770298;81;20975;-82
2022/11/03 02:23:18;;;;;;;41.77;17.02;;;;;;;9.84;92.53;98325.18;1770960;80;21003;-81
2022/11/03 02:25:53;;;;;;;40.05;18.17;;;;;;;9.89;92.65;98322.45;1770009;81;21046;-81
2022/11/03 02:28:24;;;;;;;37.48;18.80;;;;;;;9.95;92.64;98330.26;1770271;81;21003;-82
2022/11/03 02:31:16;;;;;;;40.08;17.77;;;;;;;9.99;92.76;98327.97;1765746;81;20964;-80
2022/11/03 02:33:56;;;;;;;33.67;15.83;;;;;;;10.01;92.51;98326.14;1770420;81;21043;-84
2022/11/03 02:36:45;;;;;;;36.30;16.67;;;;;;;10.06;92.67;98327.38;1765792;80;21722;-82
2022/11/03 02:39:26;;;;;;;43.33;19.30;;;;;;;10.11;92.44;98336.53;1770356;80;21444;-82
2022/11/03 02:41:56;;;;;;;39.63;18.37;;;;;;;10.09;92.32;98351.12;1767041;80;20980;-81
2022/11/03 02:44:24;;;;;;;32.15;16.25;;;;;;;10.08;92.33;98343.24;1770746;80;20997;-83
2022/11/03 02:46:55;;;;;;;41.60;18.52;;;;;;;10.08;92.30;98348.54;1772679;80;21026;-83
2022/11/03 02:49:21;;;;;;;38.95;17.20;;;;;;;10.10;92.42;98340.09;1772645;80;21011;-82
2022/11/03 02:51:50;;;;;;;33.45;16.32;;;;;;;10.12;92.08;98347.54;1773976;81;21058;-83
2022/11/03 02:54:34;;;;;;;37.13;15.43;;;;;;;10.08;91.84;98348.54;1771323;81;21106;-83
2022/11/03 02:57:05;;;;;;;31.85;15.53;;;;;;;10.08;92.18;98352.04;1775897;80;20950;-83
2022/11/03 02:59:40;;;;;;;29.57;14.15;;;;;;;10.11;91.84;98351.09;1772086;80;21011;-82
2022/11/03 03:02:11;;;;;;;24.30;13.00;;;;;;;10.11;91.69;98348.45;1736833;81;21042;-84
2022/11/03 03:04:46;;;;;;;30.72;15.38;;;;;;;10.11;91.53;98354.63;1771298;80;20984;-84
2022/11/03 03:07:18;;;;;;;30.10;14.43;;;;;;;10.10;91.51;98354.22;1770020;80;20976;-75
2022/11/03 03:09:50;;;;;;;29.63;13.80;;;;;;;10.09;91.44;98360.87;1770092;81;21007;-75
2022/11/03 03:12:19;;;;;;;30.70;15.32;;;;;;;10.06;91.36;98365.78;1770245;80;21003;-75
2022/11/03 03:14:48;;;;;;;29.67;15.55;;;;;;;10.04;91.57;98365.80;1767663;80;20959;-75
2022/11/03 03:17:35;;;;;;;30.77;15.75;;;;;;;10.07;91.49;98362.66;1771319;80;20978;-75
2022/11/03 03:20:33;;;;;;;27.45;14.63;;;;;;;10.04;91.40;98364.92;1770598;80;20979;-75
2022/11/03 03:23:20;;;;;;;29.12;14.38;;;;;;;10.04;91.21;98364.92;1742648;81;21083;-75
2022/11/03 03:26:10;;;;;;;29.12;13.78;;;;;;;10.02;91.23;98367.59;1770658;81;20972;-75
2022/11/03 03:29:09;;;;;;;30.10;15.45;;;;;;;9.97;90.88;98358.88;1770490;80;20991;-75
2022/11/03 03:31:40;;;;;;;24.63;13.55;;;;;;;9.96;90.84;98358.94;1770279;80;20971;-74
2022/11/03 03:34:09;;;;;;;27.70;14.00;;;;;;;9.90;90.65;98354.64;1768606;80;20980;-75
2022/11/03 03:36:39;;;;;;;29.80;15.10;;;;;;;9.87;90.72;98356.90;1765576;80;20973;-75
2022/11/03 03:39:09;;;;;;;26.73;13.83;;;;;;;9.85;90.65;98352.06;1760272;80;21000;-75
2022/11/03 03:41:37;;;;;;;28.57;15.05;;;;;;;9.84;90.46;98352.98;1754567;80;20982;-75
2022/11/03 03:44:07;;;;;;;27.22;14.65;;;;;;;9.80;90.62;98353.94;1760680;80;21441;-75
2022/11/03 03:46:42;;;;;;;32.08;16.55;;;;;;;9.80;90.56;98362.35;1760828;80;21500;-74
2022/11/03 03:49:08;;;;;;;29.30;15.75;;;;;;;9.76;90.89;98358.44;1759810;80;22182;-75
2022/11/03 03:51:40;;;;;;;29.72;15.28;;;;;;;9.73;90.67;98348.37;1755631;80;21021;-75
2022/11/03 03:54:09;;;;;;;33.45;14.90;;;;;;;9.71;90.64;98343.57;1666012;84;21071;-74
2022/11/03 03:56:59;;;;;;;26.45;14.47;;;;;;;9.69;90.88;98343.59;1722090;82;20993;-74
2022/11/03 03:59:26;;;;;;;27.17;13.90;;;;;;;9.69;90.88;98342.71;1722383;82;21036;-74
2022/11/03 04:01:52;;;;;;;25.45;13.68;;;;;;;9.69;90.66;98339.63;1722502;82;21057;-74
2022/11/03 04:04:20;;;;;;;27.22;13.68;;;;;;;9.67;90.68;98335.27;1722232;82;20990;-74
2022/11/03 04:06:47;;;;;;;24.20;14.55;;;;;;;9.63;90.62;98333.11;1722476;82;21387;-74
2022/11/03 04:09:14;;;;;;;27.07;14.47;;;;;;;9.57;90.73;98338.09;1714931;82;21002;-74
2022/11/03 04:22:53;;;;;;;26.33;13.10;;;;;;;9.44;90.54;98344.52;1722277;82;21486;-75
2022/11/03 04:25:19;;;;;;;23.40;11.83;;;;;;;9.44;90.53;98344.09;1722237;82;20990;-75
2022/11/03 04:27:46;;;;;;;24.45;12.63;;;;;;;9.46;90.72;98344.03;1720119;82;20993;-76
2022/11/03 04:30:18;;;;;;;23.57;11.63;;;;;;;9.51;90.71;98342.20;1711867;82;20970;-76
2022/11/03 04:32:48;;;;;;;25.75;12.90;;;;;;;9.57;90.74;98342.50;1719871;82;21057;-75
2022/11/03 04:35:22;;;;;;;24.20;11.83;;;;;;;9.60;90.67;98342.45;1722238;82;21025;-75
2022/11/03 04:38:00;;;;;;;22.80;12.58;;;;;;;9.65;90.73;98337.94;1722569;82;21034;-76
2022/11/03 04:40:28;;;;;;;28.05;12.58;;;;;;;9.69;90.52;98334.77;1711459;82;21042;-75
2022/11/03 04:42:55;;;;;;;24.07;11.60;;;;;;;9.74;90.34;98344.81;1696068;83;21021;-75
2022/11/03 04:45:27;;;;;;;22.20;12.93;;;;;;;9.75;90.19;98339.93;1694779;83;21044;-75
2022/11/03 04:47:54;;;;;;;27.05;14.15;;;;;;;9.76;90.03;98342.55;1715390;82;21044;-76
2022/11/03 04:50:23;;;;;;;25.45;12.80;;;;;;;9.82;90.43;98340.23;1699703;83;20981;-75
2022/11/03 04:52:59;;;;;;;26.85;13.75;;;;;;;9.84;90.08;98339.74;1722229;82;21013;-76
2022/11/03 04:55:26;;;;;;;21.07;11.43;;;;;;;9.86;90.04;98352.52;1722339;82;20997;-76
2022/11/03 04:58:04;;;;;;;26.75;12.13;;;;;;;9.86;89.81;98350.30;1716474;82;20977;-76
2022/11/03 05:00:31;;;;;;;23.47;11.95;;;;;;;9.98;90.24;98353.15;1711018;82;20990;-75
2022/11/03 05:02:57;;;;;;;22.30;12.00;;;;;;;9.99;89.52;98357.53;1711682;82;20989;-75
2022/11/03 05:05:25;;;;;;;25.32;13.13;;;;;;;9.96;89.39;98365.56;1709775;82;21526;-75
2022/11/03 05:07:55;;;;;;;23.98;11.43;;;;;;;9.97;89.51;98362.85;1709653;82;20990;-74
2022/11/03 05:10:26;;;;;;;21.95;11.18;;;;;;;10.00;89.53;98368.09;1712180;82;20980;-74
2022/11/03 05:12:55;;;;;;;22.35;12.20;;;;;;;9.95;89.14;98367.77;1710856;82;20990;-74
2022/11/03 05:15:39;;;;;;;24.35;12.65;;;;;;;9.89;89.00;98371.43;1711721;82;21541;-74
2022/11/03 05:18:26;;;;;;;25.27;13.03;;;;;;;9.89;89.21;98367.46;1678616;83;20994;-74
2022/11/03 05:21:12;;;;;;;23.80;12.07;;;;;;;9.90;89.28;98373.17;1711076;82;21404;-74
2022/11/03 05:23:46;;;;;;;28.65;12.50;;;;;;;9.88;89.10;98382.46;1703885;82;21005;-75
2022/11/03 05:26:32;;;;;;;28.23;13.48;;;;;;;9.85;88.92;98377.22;1710545;82;21415;-75
2022/11/03 05:29:20;;;;;;;26.40;13.30;;;;;;;9.79;88.65;98383.97;1705786;82;21014;-75
2022/11/03 05:31:48;;;;;;;25.15;13.00;;;;;;;9.74;88.72;98385.84;1711450;82;21375;-75
2022/11/03 05:34:38;;;;;;;31.50;14.90;;;;;;;9.72;88.74;98383.69;1711688;82;21045;-75
2022/11/03 05:37:33;;;;;;;57.83;28.67;;;;;;;9.69;88.89;98382.41;1707377;81;20997;-75
2022/11/03 05:40:17;;;;;;;47.00;22.80;;;;;;;9.67;88.73;98386.41;1710402;81;21465;-75
2022/11/03 05:42:46;;;;;;;25.77;13.53;;;;;;;9.64;88.80;98390.45;1732776;81;21056;-75
2022/11/03 05:45:27;;;;;;;29.25;13.13;;;;;;;9.63;88.95;98398.83;1707052;81;21001;-75
2022/11/03 05:47:55;;;;;;;31.57;15.68;;;;;;;9.65;89.22;98401.45;1733103;81;21052;-75
2022/11/03 05:50:28;;;;;;;28.25;13.93;;;;;;;9.66;89.24;98396.58;1732545;81;20977;-75
2022/11/03 05:53:30;;;;;;;25.72;13.72;;;;;;;9.66;89.22;98400.55;1730090;81;21362;-75
2022/11/03 05:56:00;;;;;;;26.48;12.73;;;;;;;9.63;89.37;98397.95;1681707;84;21024;-75
2022/11/03 05:58:36;;;;;;;25.70;13.35;;;;;;;9.60;89.28;98393.59;1733923;81;20946;-75
2022/11/03 06:01:14;;;;;;;27.90;13.22;;;;;;;9.61;89.32;98405.94;1702071;83;20986;-75
2022/11/03 06:03:41;;;;;;;28.62;12.73;;;;;;;9.63;89.29;98401.48;1727019;81;21012;-75
2022/11/03 06:06:20;;;;;;;25.10;13.50;;;;;;;9.65;89.31;98397.48;1734014;81;21430;-75
2022/11/03 06:08:48;;;;;;;26.23;12.33;;;;;;;9.67;89.15;98406.25;1733013;81;20976;-75
2022/11/03 06:11:27;;;;;;;23.87;12.80;;;;;;;9.69;89.22;98397.85;1733757;81;21524;-74
2022/11/03 06:13:57;;;;;;;25.92;12.73;;;;;;;9.73;89.24;98401.30;1733603;81;21005;-75
2022/11/03 06:16:59;;;;;;;30.55;13.48;;;;;;;9.80;89.23;98406.03;1733763;81;22139;-75
2022/11/03 06:19:30;;;;;;;27.60;14.20;;;;;;;9.84;89.03;98416.52;1733919;81;21044;-75
2022/11/03 06:22:02;;;;;;;27.27;13.15;;;;;;;9.90;88.96;98414.20;1733758;81;21113;-75
2022/11/03 06:24:31;;;;;;;24.90;13.53;;;;;;;9.95;88.94;98418.95;1715943;81;21527;-76
2022/11/03 06:26:58;;;;;;;29.00;15.32;;;;;;;10.00;88.70;98421.49;1733218;81;21044;-76
2022/11/03 06:29:25;;;;;;;28.30;14.58;;;;;;;10.03;88.56;98424.09;1733144;81;21668;-76
2022/11/03 06:31:56;;;;;;;36.28;17.48;;;;;;;10.04;88.39;98425.83;1731371;81;20972;-75
2022/11/03 06:34:34;;;;;;;32.28;16.07;;;;;;;10.03;88.40;98422.33;1729172;81;21452;-75
2022/11/03 06:37:06;;;;;;;28.47;14.98;;;;;;;10.06;88.57;98417.86;1705252;81;21075;-75
2022/11/03 06:39:33;;;;;;;25.88;12.53;;;;;;;10.11;88.52;98438.50;1715655;82;20962;-75
2022/11/03 06:42:13;;;;;;;22.67;12.33;;;;;;;10.08;87.64;98432.81;1720749;82;21407;-75
2022/11/03 06:44:46;;;;;;;21.48;11.03;;;;;;;10.03;87.67;98426.73;1717432;82;21123;-75
2022/11/03 06:47:23;;;;;;;26.12;12.70;;;;;;;9.98;87.35;98424.64;1722242;82;21013;-75
2022/11/03 06:49:54;;;;;;;23.20;12.90;;;;;;;9.97;87.60;98427.72;1721863;82;21487;-75
2022/11/03 06:52:32;;;;;;;23.55;13.13;;;;;;;10.00;87.76;98426.34;1719592;82;20997;-75
2022/11/03 06:55:13;;;;;;;26.00;15.35;;;;;;;10.00;87.31;98427.67;1719793;82;20998;-75
2022/11/03 06:57:45;;;;;;;26.48;14.70;;;;;;;10.00;87.30;98431.65;1722371;82;21531;-76
2022/11/03 07:00:22;;;;;;;25.12;15.00;;;;;;;9.97;87.15;98426.88;1721534;82;21010;-75
2022/11/03 07:03:36;;;;;;;27.00;14.87;;;;;;;9.98;87.38;98433.91;1698126;83;21779;-75
2022/11/03 07:06:26;;;;;;;26.25;13.32;;;;;;;10.00;87.40;98435.62;1710301;82;21054;-74
2022/11/03 07:09:03;;;;;;;23.05;11.38;;;;;;;10.05;87.40;98434.19;1696501;82;21017;-74
2022/11/03 07:11:48;;;;;;;22.37;12.35;;;;;;;10.12;87.29;98435.82;1720077;82;21053;-74
2022/11/03 07:14:25;;;;;;;21.80;11.80;;;;;;;10.19;87.67;98426.41;1717713;82;21029;-74
2022/11/03 07:17:04;;;;;;;31.33;13.48;;;;;;;10.27;87.40;98437.29;1720533;82;21005;-74
2022/11/03 07:19:39;;;;;;;22.42;11.03;;;;;;;10.29;87.07;98439.88;1712147;82;21029;-75
2022/11/03 07:22:25;;;;;;;21.33;11.45;;;;;;;10.32;86.67;98435.86;1713052;82;20990;-75
2022/11/03 07:25:01;;;;;;;22.00;11.97;;;;;;;10.32;86.47;98435.86;1694068;83;20971;-75
2022/11/03 07:27:31;;;;;;;23.27;11.95;;;;;;;10.36;86.80;98436.22;1703271;84;21605;-75
2022/11/03 07:30:20;;;;;;;20.72;11.05;;;;;;;10.39;86.34;98437.45;1713472;83;21113;-75
2022/11/03 07:32:39;;;;;;;21.05;11.53;;;;;;;10.41;86.21;98440.08;1704133;82;21003;-75
2022/11/03 07:35:23;;;;;;;23.18;11.70;;;;;;;10.42;85.71;98444.46;1674533;84;20985;-75
2022/11/03 07:37:51;;;;;;;22.40;11.78;;;;;;;10.41;85.82;98440.08;1689813;83;21018;-74
2022/11/03 07:40:23;;;;;;;19.98;11.20;;;;;;;10.40;85.33;98443.63;1711318;82;20997;-75
2022/11/03 07:42:51;;;;;;;23.52;11.15;;;;;;;10.36;85.02;98438.86;1709059;82;21041;-75
2022/11/03 07:45:39;;;;;;;22.07;11.90;;;;;;;10.33;85.25;98436.73;1710700;82;21017;-75
2022/11/03 07:48:39;;;;;;;23.60;11.88;;;;;;;10.32;84.96;98439.83;1689942;85;21061;-75
2022/11/03 07:51:28;;;;;;;20.68;10.48;;;;;;;10.36;85.36;98443.27;1680470;83;21064;-76
2022/11/03 07:54:09;;;;;;;21.23;11.83;;;;;;;10.38;85.30;98444.13;1680545;85;21038;-75
2022/11/03 07:56:41;;;;;;;21.10;12.23;;;;;;;10.39;85.01;98440.10;1698305;84;21057;-75
2022/11/03 07:59:15;;;;;;;21.37;10.80;;;;;;;10.39;84.74;98443.22;1695542;84;21488;-75
2022/11/03 08:01:46;;;;;;;23.12;11.90;;;;;;;10.39;84.92;98445.40;1695848;83;21543;-75
2022/11/03 08:04:34;;;;;;;24.30;11.97;;;;;;;10.39;84.86;98440.58;1714242;83;21041;-75
2022/11/03 08:07:01;;;;;;;25.27;11.22;;;;;;;10.36;84.85;98433.56;1688750;84;21069;-75
2022/11/03 08:09:27;;;;;;;22.65;11.60;;;;;;;10.34;84.94;98431.37;1735039;82;21063;-75
2022/11/03 08:11:54;;;;;;;45.60;25.15;;;;;;;10.39;85.34;98435.27;1735204;82;21018;-75
2022/11/03 08:14:20;;;;;;;25.43;14.90;;;;;;;10.45;85.22;98428.54;1738032;82;20976;-75
2022/11/03 08:16:47;;;;;;;22.45;11.80;;;;;;;10.48;85.15;98436.88;1737319;82;20992;-75
2022/11/03 08:19:13;;;;;;;21.95;11.88;;;;;;;10.51;85.07;98428.86;1736895;82;22177;-76
2022/11/03 08:21:40;;;;;;;25.45;11.50;;;;;;;10.54;84.76;98438.05;1738508;82;21007;-76
2022/11/03 08:24:06;;;;;;;18.67;10.98;;;;;;;10.55;84.91;98435.38;1736825;82;20970;-76
2022/11/03 08:26:33;;;;;;;19.10;11.12;;;;;;;10.55;84.78;98425.25;1736921;82;20935;-75
2022/11/03 08:29:01;;;;;;;20.23;11.45;;;;;;;10.57;84.46;98432.70;1736641;82;21428;-76
2022/11/03 08:31:27;;;;;;;25.55;11.30;;;;;;;10.53;84.42;98431.91;1736297;82;21429;-76
2022/11/03 08:33:54;;;;;;;20.05;12.03;;;;;;;10.54;84.47;98431.43;1737764;82;21203;-76
2022/11/03 08:36:20;;;;;;;19.23;11.28;;;;;;;10.58;84.23;98430.93;1739001;82;20959;-75
2022/11/03 08:38:47;;;;;;;21.17;12.37;;;;;;;10.60;84.33;98426.02;1738307;82;21389;-76
2022/11/03 08:41:15;;;;;;;20.85;11.73;;;;;;;10.61;83.96;98432.17;1736451;80;20963;-75
2022/11/03 08:43:41;;;;;;;23.25;11.83;;;;;;;10.58;83.72;98431.78;1738071;82;20952;-76
2022/11/03 08:46:08;;;;;;;28.20;11.93;;;;;;;10.56;83.78;98430.95;1737185;82;21014;-76
2022/11/03 08:48:34;;;;;;;24.20;13.45;;;;;;;10.59;84.11;98427.36;1737990;82;20959;-76
2022/11/03 08:51:01;;;;;;;25.17;14.38;;;;;;;10.60;83.74;98429.98;1735398;82;20987;-75
2022/11/03 08:53:29;;;;;;;27.77;14.35;;;;;;;10.60;83.57;98434.41;1739260;82;21006;-76
2022/11/03 08:55:55;;;;;;;24.12;13.58;;;;;;;10.59;83.81;98431.34;1736752;82;21345;-76
2022/11/03 08:58:22;;;;;;;20.65;11.10;;;;;;;10.64;83.90;98434.31;1736838;82;20991;-76
2022/11/03 09:00:49;;;;;;;17.95;11.38;;;;;;;10.69;83.98;98429.78;1740761;82;21014;-75
2022/11/03 09:03:16;;;;;;;20.37;11.10;;;;;;;10.74;83.72;98441.59;1739519;82;20993;-75
2022/11/03 09:05:42;;;;;;;18.15;10.93;;;;;;;10.79;83.80;98433.52;1735939;81;21010;-76
2022/11/03 09:08:09;;;;;;;22.58;11.20;;;;;;;10.85;83.60;98435.16;1734252;82;20985;-75
2022/11/03 09:10:35;;;;;;;22.85;12.03;;;;;;;10.89;83.56;98432.42;1735246;82;20965;-75
2022/11/03 09:13:02;;;;;;;24.70;10.55;;;;;;;10.91;83.27;98437.22;1739471;82;20978;-75
2022/11/03 09:15:29;;;;;;;24.75;14.40;;;;;;;10.94;83.13;98433.62;1735511;82;20971;-75
2022/11/03 09:17:56;;;;;;;24.85;13.48;;;;;;;10.95;83.05;98430.94;1734411;82;21031;-76
2022/11/03 09:20:23;;;;;;;25.27;12.33;;;;;;;11.00;83.50;98433.94;1734647;82;22107;-75
2022/11/03 09:22:50;;;;;;;21.48;12.33;;;;;;;11.02;82.48;98434.76;1743729;81;20952;-76
2022/11/03 09:25:16;;;;;;;21.48;11.20;;;;;;;11.05;82.90;98430.72;1717679;83;20977;-77
2022/11/03 09:27:43;;;;;;;22.67;10.85;;;;;;;11.10;82.77;98422.19;1726584;82;20973;-76
2022/11/03 09:30:11;;;;;;;22.30;11.97;;;;;;;11.16;81.84;98427.33;1705663;84;21386;-76
2022/11/03 09:32:38;;;;;;;18.85;10.95;;;;;;;11.16;82.73;98422.03;1731747;82;20962;-84
2022/11/03 09:35:08;;;;;;;21.02;12.50;;;;;;;11.14;81.70;98422.98;1706186;84;20992;-84
2022/11/03 09:37:35;;;;;;;21.62;12.15;;;;;;;11.13;81.93;98415.46;1736215;82;20980;-83
2022/11/03 09:40:03;;;;;;;25.23;11.50;;;;;;;11.14;81.88;98415.91;1752502;80;21371;-82
2022/11/03 09:42:33;;;;;;;23.98;12.63;;;;;;;11.13;82.02;98410.63;1753849;80;20985;-82
2022/11/03 09:45:01;;;;;;;27.13;13.62;;;;;;;11.14;81.96;98409.27;1750927;82;21027;-84
2022/11/03 09:47:34;;;;;;;26.23;14.38;;;;;;;11.17;81.77;98401.69;1750254;81;21408;-82
2022/11/03 09:50:02;;;;;;;27.40;12.95;;;;;;;11.17;81.66;98401.21;1750322;82;20982;-82
2022/11/03 09:52:30;;;;;;;22.80;12.90;;;;;;;11.18;81.88;98398.97;1746104;82;21432;-83
2022/11/03 09:54:58;;;;;;;24.60;14.05;;;;;;;11.22;81.85;98395.34;1746108;82;20956;-82
2022/11/03 09:57:28;;;;;;;28.77;14.68;;;;;;;11.33;82.12;98383.56;1748993;81;21024;-82
2022/11/03 09:59:55;;;;;;;29.77;15.15;;;;;;;11.46;82.34;98381.00;1724799;83;21466;-83
2022/11/03 10:02:30;;;;;;;29.42;15.38;;;;;;;11.61;81.93;98389.47;1705442;84;20996;-82
2022/11/03 10:05:00;;;;;;;26.62;14.30;;;;;;;11.65;81.55;98382.28;1702185;84;20976;-82
2022/11/03 10:07:31;;;;;;;26.20;14.45;;;;;;;11.71;81.90;98377.67;1692656;84;21085;-83
2022/11/03 10:10:00;;;;;;;27.75;14.60;;;;;;;11.81;81.78;98375.64;1689299;85;20957;-84
2022/11/03 10:12:31;;;;;;;27.15;15.35;;;;;;;11.91;81.35;98376.23;1706148;84;21024;-84
2022/11/03 10:14:58;;;;;;;28.15;15.50;;;;;;;11.98;81.54;98375.60;1679933;85;20971;-76
2022/11/03 10:17:29;;;;;;;29.30;15.15;;;;;;;12.02;81.20;98370.63;1699023;83;21001;-76
2022/11/03 10:19:57;;;;;;;29.98;15.80;;;;;;;12.07;80.83;98369.17;1692302;85;21187;-75
2022/11/03 10:22:23;;;;;;;28.27;14.95;;;;;;;12.12;80.46;98362.82;1683748;84;21044;-75
2022/11/03 10:25:12;;;;;;;33.58;16.32;;;;;;;12.11;80.04;98362.41;1677888;85;20967;-75
2022/11/03 10:27:38;;;;;;;26.77;15.50;;;;;;;12.10;80.42;98363.78;1700265;84;20981;-75
2022/11/03 10:30:11;;;;;;;29.60;16.90;;;;;;;12.13;79.75;98367.21;1678338;85;20979;-76
2022/11/03 10:32:40;;;;;;;32.93;15.20;;;;;;;12.16;79.56;98363.59;1702548;84;21022;-77
2022/11/03 10:35:12;;;;;;;28.42;15.28;;;;;;;12.15;79.92;98361.86;1676967;84;21077;-73
2022/11/03 10:37:38;;;;;;;30.55;15.40;;;;;;;12.20;80.07;98351.95;1684246;85;21096;-73
2022/11/03 10:40:09;;;;;;;30.43;15.43;;;;;;;12.28;79.86;98353.93;1692856;84;21036;-73
2022/11/03 10:42:36;;;;;;;31.82;16.20;;;;;;;12.31;79.36;98351.64;1668259;85;20985;-73
2022/11/03 10:45:18;;;;;;;29.12;16.55;;;;;;;12.36;79.50;98357.67;1708258;84;21017;-75
2022/11/03 10:48:01;;;;;;;31.07;16.20;;;;;;;12.43;79.41;98350.39;1708548;84;21044;-74
2022/11/03 10:50:28;;;;;;;29.07;16.37;;;;;;;12.38;78.99;98344.34;1708298;84;21423;-74
2022/11/03 10:52:55;;;;;;;32.05;17.23;;;;;;;12.35;78.86;98336.45;1689321;84;21025;-74
2022/11/03 10:55:25;;;;;;;31.40;15.60;;;;;;;12.36;78.79;98332.87;1658752;85;20989;-75
2022/11/03 10:57:57;;;;;;;33.20;15.75;;;;;;;12.40;79.08;98330.09;1697694;83;21079;-74
2022/11/03 11:00:23;;;;;;;28.38;17.05;;;;;;;12.49;79.19;98324.05;1704696;84;20997;-79
2022/11/03 11:02:55;;;;;;;33.40;16.80;;;;;;;12.59;79.35;98322.86;1686737;84;21032;-77
2022/11/03 11:05:23;;;;;;;31.52;17.57;;;;;;;12.65;78.61;98316.45;1675292;85;21061;-73
2022/11/03 11:07:51;;;;;;;31.62;16.45;;;;;;;12.69;78.64;98315.44;1714941;83;21040;-75
2022/11/03 11:10:27;;;;;;;37.40;16.73;;;;;;;12.77;78.69;98317.84;1726747;82;21015;-75
2022/11/03 11:13:17;;;;;;;37.35;18.12;;;;;;;12.84;78.34;98307.41;1741284;82;20961;-73
2022/11/03 11:16:00;;;;;;;40.12;18.55;;;;;;;12.90;78.19;98301.00;1731343;82;21104;-73
2022/11/03 11:18:32;;;;;;;37.85;18.32;;;;;;;12.97;77.71;98295.01;1638175;84;21024;-73
2022/11/03 11:21:01;;;;;;;42.73;22.32;;;;;;;13.04;77.35;98295.22;1741351;82;21013;-74
2022/11/03 11:23:36;;;;;;;39.92;19.45;;;;;;;13.12;77.77;98291.80;1716104;82;20964;-73
2022/11/03 11:26:31;;;;;;;42.10;20.08;;;;;;;13.21;77.28;98282.66;1736996;82;20966;-74
2022/11/03 11:29:14;;;;;;;41.80;18.92;;;;;;;13.26;76.81;98278.48;1735665;82;21029;-73
2022/11/03 11:31:44;;;;;;;50.03;22.55;;;;;;;13.26;76.53;98275.38;1741579;82;20962;-73
2022/11/03 11:34:22;;;;;;;50.88;23.45;;;;;;;13.25;76.36;98272.76;1715493;82;21006;-74
2022/11/03 11:37:01;;;;;;;41.37;21.33;;;;;;;13.24;76.60;98274.53;1741048;82;21005;-74
2022/11/03 11:39:34;;;;;;;42.08;20.40;;;;;;;13.21;76.34;98272.01;1740489;82;20959;-74
2022/11/03 11:42:19;;;;;;;35.00;18.77;;;;;;;13.23;76.09;98270.59;1741907;82;20940;-73
2022/11/03 11:44:52;;;;;;;30.52;16.40;;;;;;;13.26;76.67;98269.16;1741260;82;21079;-72
2022/11/03 11:47:34;;;;;;;34.00;16.90;;;;;;;13.26;75.95;98270.50;1730501;82;21004;-73
2022/11/03 11:50:15;;;;;;;28.83;14.98;;;;;;;13.25;75.79;98270.09;1741714;82;20950;-73
2022/11/03 11:52:58;;;;;;;24.72;14.68;;;;;;;13.24;75.47;98270.55;1741694;82;21006;-73
2022/11/03 11:55:56;;;;;;;30.60;15.47;;;;;;;13.23;75.55;98265.27;1738221;82;21068;-72
2022/11/03 11:58:28;;;;;;;27.30;14.40;;;;;;;13.19;75.25;98264.52;1741901;82;21096;-72
2022/11/03 12:01:00;;;;;;;27.58;14.38;;;;;;;13.15;75.04;98262.89;1741654;82;21421;-72
2022/11/03 12:03:41;;;;;;;28.55;14.10;;;;;;;13.04;74.96;98267.28;1729661;82;20993;-73